sensor_id;sensor_type;location;lat;lon;timestamp;P1;durP1;ratioP1;P2;durP2;ratioP2
22995;SDS011;11664;49.774;8.650;2023-04-23T00:01:03;37.75;;;35.55;;
22995;SDS011;11664;49.774;8.650;2023-04-23T00:03:30;39.08;;;36.78;;
22995;SDS011;11664;49.774;8.650;2023-04-23T00:06:06;30.83;;;29.00;;
22995;SDS011;11664;49.774;8.650;2023-04-23T00:08:37;40.20;;;37.72;;
22995;SDS011;11664;49.774;8.650;2023-04-23T00:11:04;30.30;;;28.52;;
22995;SDS011;11664;49.774;8.650;2023-04-23T00:13:30;47.38;;;44.55;;
22995;SDS011;11664;49.774;8.650;2023-04-23T00:15:56;50.13;;;47.20;;
22995;SDS011;11664;49.774;8.650;2023-04-23T00:18:28;49.55;;;46.72;;
22995;SDS011;11664;49.774;8.650;2023-04-23T00:20:57;25.83;;;24.25;;
22995;SDS011;11664;49.774;8.650;2023-04-23T00:23:26;29.25;;;27.50;;
22995;SDS011;11664;49.774;8.650;2023-04-23T00:26:04;23.92;;;22.45;;
22995;SDS011;11664;49.774;8.650;2023-04-23T00:28:30;26.70;;;25.15;;
22995;SDS011;11664;49.774;8.650;2023-04-23T00:30:55;19.65;;;18.35;;
22995;SDS011;11664;49.774;8.650;2023-04-23T00:33:27;30.92;;;29.20;;
22995;SDS011;11664;49.774;8.650;2023-04-23T00:35:53;39.83;;;37.58;;
22995;SDS011;11664;49.774;8.650;2023-04-23T00:38:27;51.50;;;48.50;;
22995;SDS011;11664;49.774;8.650;2023-04-23T00:40:56;36.15;;;34.20;;
22995;SDS011;11664;49.774;8.650;2023-04-23T00:43:27;34.90;;;32.85;;
22995;SDS011;11664;49.774;8.650;2023-04-23T00:45:59;35.75;;;33.38;;
22995;SDS011;11664;49.774;8.650;2023-04-23T00:48:25;33.88;;;31.83;;
22995;SDS011;11664;49.774;8.650;2023-04-23T00:50:58;50.88;;;47.78;;
22995;SDS011;11664;49.774;8.650;2023-04-23T00:53:25;21.05;;;19.75;;
22995;SDS011;11664;49.774;8.650;2023-04-23T00:55:56;25.58;;;24.02;;
22995;SDS011;11664;49.774;8.650;2023-04-23T00:58:23;21.10;;;19.50;;
22995;SDS011;11664;49.774;8.650;2023-04-23T01:00:49;16.33;;;15.38;;
22995;SDS011;11664;49.774;8.650;2023-04-23T01:03:16;16.17;;;15.13;;
22995;SDS011;11664;49.774;8.650;2023-04-23T01:05:42;21.13;;;19.77;;
22995;SDS011;11664;49.774;8.650;2023-04-23T01:08:13;12.90;;;11.80;;
22995;SDS011;11664;49.774;8.650;2023-04-23T01:10:46;37.65;;;35.42;;
22995;SDS011;11664;49.774;8.650;2023-04-23T01:15:50;35.60;;;33.55;;
22995;SDS011;11664;49.774;8.650;2023-04-23T01:18:15;46.30;;;43.65;;
22995;SDS011;11664;49.774;8.650;2023-04-23T01:20:47;43.92;;;41.25;;
22995;SDS011;11664;49.774;8.650;2023-04-23T01:23:19;44.80;;;42.25;;
22995;SDS011;11664;49.774;8.650;2023-04-23T01:25:48;24.08;;;22.38;;
22995;SDS011;11664;49.774;8.650;2023-04-23T01:28:14;28.30;;;26.50;;
22995;SDS011;11664;49.774;8.650;2023-04-23T01:30:41;20.75;;;19.40;;
22995;SDS011;11664;49.774;8.650;2023-04-23T01:33:07;14.32;;;13.23;;
22995;SDS011;11664;49.774;8.650;2023-04-23T01:35:37;14.43;;;13.48;;
22995;SDS011;11664;49.774;8.650;2023-04-23T01:38:08;21.63;;;20.42;;
22995;SDS011;11664;49.774;8.650;2023-04-23T01:40:35;20.60;;;19.27;;
22995;SDS011;11664;49.774;8.650;2023-04-23T01:43:01;18.85;;;17.75;;
22995;SDS011;11664;49.774;8.650;2023-04-23T01:45:31;15.75;;;14.45;;
22995;SDS011;11664;49.774;8.650;2023-04-23T01:47:58;25.95;;;24.30;;
22995;SDS011;11664;49.774;8.650;2023-04-23T01:50:24;35.63;;;33.58;;
22995;SDS011;11664;49.774;8.650;2023-04-23T01:52:51;37.13;;;34.97;;
22995;SDS011;11664;49.774;8.650;2023-04-23T01:55:17;32.40;;;30.55;;
22995;SDS011;11664;49.774;8.650;2023-04-23T02:01:04;30.08;;;28.38;;
22995;SDS011;11664;49.774;8.650;2023-04-23T02:03:36;26.73;;;25.05;;
22995;SDS011;11664;49.774;8.650;2023-04-23T02:06:05;22.73;;;21.43;;
22995;SDS011;11664;49.774;8.650;2023-04-23T02:08:30;11.88;;;11.07;;
22995;SDS011;11664;49.774;8.650;2023-04-23T02:13:31;11.55;;;10.68;;
22995;SDS011;11664;49.774;8.650;2023-04-23T02:15:57;11.90;;;11.18;;
22995;SDS011;11664;49.774;8.650;2023-04-23T02:18:26;12.10;;;11.30;;
22995;SDS011;11664;49.774;8.650;2023-04-23T02:20:54;12.07;;;11.23;;
22995;SDS011;11664;49.774;8.650;2023-04-23T02:23:24;12.10;;;11.32;;
22995;SDS011;11664;49.774;8.650;2023-04-23T02:25:49;13.70;;;12.75;;
22995;SDS011;11664;49.774;8.650;2023-04-23T02:28:19;8.68;;;8.07;;
22995;SDS011;11664;49.774;8.650;2023-04-23T02:30:50;8.27;;;7.57;;
22995;SDS011;11664;49.774;8.650;2023-04-23T02:33:19;10.57;;;9.88;;
22995;SDS011;11664;49.774;8.650;2023-04-23T02:35:53;13.25;;;12.35;;
22995;SDS011;11664;49.774;8.650;2023-04-23T02:38:19;18.45;;;17.17;;
22995;SDS011;11664;49.774;8.650;2023-04-23T02:40:44;16.00;;;14.90;;
22995;SDS011;11664;49.774;8.650;2023-04-23T02:43:13;13.05;;;12.05;;
22995;SDS011;11664;49.774;8.650;2023-04-23T02:45:39;16.73;;;15.57;;
22995;SDS011;11664;49.774;8.650;2023-04-23T02:48:13;15.27;;;14.25;;
22995;SDS011;11664;49.774;8.650;2023-04-23T02:50:42;13.55;;;12.55;;
22995;SDS011;11664;49.774;8.650;2023-04-23T02:53:13;23.08;;;21.55;;
22995;SDS011;11664;49.774;8.650;2023-04-23T02:55:39;18.67;;;17.30;;
22995;SDS011;11664;49.774;8.650;2023-04-23T02:58:07;22.85;;;21.50;;
22995;SDS011;11664;49.774;8.650;2023-04-23T03:00:34;25.33;;;23.75;;
22995;SDS011;11664;49.774;8.650;2023-04-23T03:03:00;35.15;;;33.10;;
22995;SDS011;11664;49.774;8.650;2023-04-23T03:05:25;22.70;;;21.25;;
22995;SDS011;11664;49.774;8.650;2023-04-23T03:07:56;31.80;;;29.92;;
22995;SDS011;11664;49.774;8.650;2023-04-23T03:10:22;27.77;;;26.20;;
22995;SDS011;11664;49.774;8.650;2023-04-23T03:12:47;22.83;;;21.40;;
22995;SDS011;11664;49.774;8.650;2023-04-23T03:15:13;11.30;;;10.30;;
22995;SDS011;11664;49.774;8.650;2023-04-23T03:17:39;14.15;;;13.23;;
22995;SDS011;11664;49.774;8.650;2023-04-23T03:20:08;21.52;;;20.08;;
22995;SDS011;11664;49.774;8.650;2023-04-23T03:22:41;13.85;;;12.85;;
22995;SDS011;11664;49.774;8.650;2023-04-23T03:25:07;10.35;;;9.55;;
22995;SDS011;11664;49.774;8.650;2023-04-23T03:27:33;15.15;;;14.10;;
22995;SDS011;11664;49.774;8.650;2023-04-23T03:29:58;13.35;;;12.52;;
22995;SDS011;11664;49.774;8.650;2023-04-23T03:32:27;9.98;;;9.27;;
22995;SDS011;11664;49.774;8.650;2023-04-23T03:34:52;12.02;;;11.23;;
22995;SDS011;11664;49.774;8.650;2023-04-23T03:37:18;12.93;;;11.95;;
22995;SDS011;11664;49.774;8.650;2023-04-23T03:39:43;14.10;;;13.15;;
22995;SDS011;11664;49.774;8.650;2023-04-23T03:42:09;11.63;;;10.82;;
22995;SDS011;11664;49.774;8.650;2023-04-23T03:44:40;8.95;;;8.25;;
22995;SDS011;11664;49.774;8.650;2023-04-23T03:47:06;8.68;;;8.02;;
22995;SDS011;11664;49.774;8.650;2023-04-23T03:49:31;8.38;;;7.75;;
22995;SDS011;11664;49.774;8.650;2023-04-23T03:51:57;7.70;;;6.57;;
22995;SDS011;11664;49.774;8.650;2023-04-23T03:54:22;8.65;;;7.70;;
22995;SDS011;11664;49.774;8.650;2023-04-23T03:57:05;9.23;;;8.32;;
22995;SDS011;11664;49.774;8.650;2023-04-23T03:59:30;8.98;;;8.20;;
22995;SDS011;11664;49.774;8.650;2023-04-23T04:01:59;7.80;;;6.90;;
22995;SDS011;11664;49.774;8.650;2023-04-23T04:04:24;11.98;;;7.10;;
22995;SDS011;11664;49.774;8.650;2023-04-23T04:06:50;8.27;;;7.60;;
22995;SDS011;11664;49.774;8.650;2023-04-23T04:09:16;9.10;;;8.40;;
22995;SDS011;11664;49.774;8.650;2023-04-23T04:11:41;8.80;;;8.10;;
22995;SDS011;11664;49.774;8.650;2023-04-23T04:14:07;9.27;;;8.35;;
22995;SDS011;11664;49.774;8.650;2023-04-23T04:16:32;8.52;;;7.88;;
22995;SDS011;11664;49.774;8.650;2023-04-23T04:18:58;7.65;;;7.10;;
22995;SDS011;11664;49.774;8.650;2023-04-23T04:21:25;7.95;;;7.40;;
22995;SDS011;11664;49.774;8.650;2023-04-23T04:23:52;8.00;;;7.40;;
22995;SDS011;11664;49.774;8.650;2023-04-23T04:26:17;9.25;;;8.65;;
22995;SDS011;11664;49.774;8.650;2023-04-23T04:28:43;12.77;;;11.98;;
22995;SDS011;11664;49.774;8.650;2023-04-23T04:31:15;10.45;;;9.60;;
22995;SDS011;11664;49.774;8.650;2023-04-23T04:33:41;9.63;;;8.93;;
22995;SDS011;11664;49.774;8.650;2023-04-23T04:36:10;18.98;;;17.77;;
22995;SDS011;11664;49.774;8.650;2023-04-23T04:38:50;10.83;;;10.13;;
22995;SDS011;11664;49.774;8.650;2023-04-23T04:41:19;10.75;;;8.10;;
22995;SDS011;11664;49.774;8.650;2023-04-23T04:43:52;8.85;;;7.70;;
22995;SDS011;11664;49.774;8.650;2023-04-23T04:46:18;8.35;;;7.65;;
22995;SDS011;11664;49.774;8.650;2023-04-23T06:06:25;29.85;;;28.15;;
22995;SDS011;11664;49.774;8.650;2023-04-23T06:08:51;27.25;;;24.63;;
22995;SDS011;11664;49.774;8.650;2023-04-23T06:11:17;23.33;;;21.85;;
22995;SDS011;11664;49.774;8.650;2023-04-23T06:13:43;16.92;;;15.85;;
22995;SDS011;11664;49.774;8.650;2023-04-23T06:16:08;21.00;;;19.70;;
22995;SDS011;11664;49.774;8.650;2023-04-23T06:18:34;33.42;;;31.58;;
22995;SDS011;11664;49.774;8.650;2023-04-23T06:21:01;24.50;;;23.10;;
22995;SDS011;11664;49.774;8.650;2023-04-23T06:23:28;28.02;;;26.50;;
22995;SDS011;11664;49.774;8.650;2023-04-23T06:25:54;25.33;;;23.85;;
22995;SDS011;11664;49.774;8.650;2023-04-23T06:28:20;31.08;;;29.40;;
22995;SDS011;11664;49.774;8.650;2023-04-23T06:30:45;26.92;;;25.25;;
22995;SDS011;11664;49.774;8.650;2023-04-23T06:33:11;21.90;;;20.65;;
22995;SDS011;11664;49.774;8.650;2023-04-23T06:35:37;11.43;;;10.68;;
22995;SDS011;11664;49.774;8.650;2023-04-23T06:38:03;12.25;;;11.35;;
22995;SDS011;11664;49.774;8.650;2023-04-23T06:40:28;12.48;;;11.68;;
22995;SDS011;11664;49.774;8.650;2023-04-23T06:42:54;31.48;;;29.67;;
22995;SDS011;11664;49.774;8.650;2023-04-23T06:45:19;25.15;;;23.70;;
22995;SDS011;11664;49.774;8.650;2023-04-23T06:47:45;28.35;;;26.75;;
22995;SDS011;11664;49.774;8.650;2023-04-23T06:50:13;13.75;;;12.95;;
22995;SDS011;11664;49.774;8.650;2023-04-23T06:52:38;11.60;;;10.70;;
22995;SDS011;11664;49.774;8.650;2023-04-23T06:55:04;11.20;;;10.52;;
22995;SDS011;11664;49.774;8.650;2023-04-23T06:57:30;6.43;;;5.07;;
22995;SDS011;11664;49.774;8.650;2023-04-23T06:59:56;17.45;;;16.45;;
22995;SDS011;11664;49.774;8.650;2023-04-23T07:02:21;10.25;;;9.60;;
22995;SDS011;11664;49.774;8.650;2023-04-23T07:04:47;10.55;;;9.63;;
22995;SDS011;11664;49.774;8.650;2023-04-23T07:07:12;9.80;;;9.07;;
22995;SDS011;11664;49.774;8.650;2023-04-23T07:09:37;13.10;;;12.05;;
22995;SDS011;11664;49.774;8.650;2023-04-23T07:12:03;8.70;;;7.78;;
22995;SDS011;11664;49.774;8.650;2023-04-23T07:14:29;7.97;;;7.38;;
22995;SDS011;11664;49.774;8.650;2023-04-23T07:16:54;6.75;;;6.25;;
22995;SDS011;11664;49.774;8.650;2023-04-23T07:19:20;6.70;;;6.10;;
22995;SDS011;11664;49.774;8.650;2023-04-23T07:21:45;11.23;;;10.27;;
22995;SDS011;11664;49.774;8.650;2023-04-23T07:24:11;8.52;;;7.93;;
22995;SDS011;11664;49.774;8.650;2023-04-23T07:26:36;8.65;;;8.10;;
22995;SDS011;11664;49.774;8.650;2023-04-23T07:29:02;14.43;;;13.55;;
22995;SDS011;11664;49.774;8.650;2023-04-23T07:31:30;10.77;;;9.98;;
22995;SDS011;11664;49.774;8.650;2023-04-23T07:33:56;8.98;;;8.38;;
22995;SDS011;11664;49.774;8.650;2023-04-23T07:36:21;11.40;;;10.52;;
22995;SDS011;11664;49.774;8.650;2023-04-23T07:38:47;10.20;;;9.40;;
22995;SDS011;11664;49.774;8.650;2023-04-23T07:41:13;9.48;;;8.88;;
22995;SDS011;11664;49.774;8.650;2023-04-23T07:43:38;7.68;;;6.97;;
22995;SDS011;11664;49.774;8.650;2023-04-23T07:46:05;12.77;;;11.88;;
22995;SDS011;11664;49.774;8.650;2023-04-23T07:48:31;8.80;;;8.15;;
22995;SDS011;11664;49.774;8.650;2023-04-23T07:50:58;5.75;;;5.32;;
22995;SDS011;11664;49.774;8.650;2023-04-23T07:53:24;5.93;;;5.47;;
22995;SDS011;11664;49.774;8.650;2023-04-23T07:55:52;7.93;;;7.32;;
22995;SDS011;11664;49.774;8.650;2023-04-23T07:58:19;6.32;;;5.72;;
22995;SDS011;11664;49.774;8.650;2023-04-23T08:00:45;6.53;;;5.93;;
22995;SDS011;11664;49.774;8.650;2023-04-23T08:03:10;5.93;;;5.40;;
22995;SDS011;11664;49.774;8.650;2023-04-23T08:05:36;6.75;;;6.25;;
22995;SDS011;11664;49.774;8.650;2023-04-23T08:08:02;6.43;;;5.43;;
22995;SDS011;11664;49.774;8.650;2023-04-23T08:10:28;7.90;;;7.32;;
22995;SDS011;11664;49.774;8.650;2023-04-23T08:12:54;10.15;;;9.43;;
22995;SDS011;11664;49.774;8.650;2023-04-23T08:15:19;10.02;;;9.27;;
22995;SDS011;11664;49.774;8.650;2023-04-23T08:17:45;23.58;;;22.08;;
22995;SDS011;11664;49.774;8.650;2023-04-23T08:20:10;8.95;;;8.38;;
22995;SDS011;11664;49.774;8.650;2023-04-23T08:22:36;8.60;;;7.90;;
22995;SDS011;11664;49.774;8.650;2023-04-23T08:25:02;9.15;;;8.55;;
22995;SDS011;11664;49.774;8.650;2023-04-23T08:27:28;12.43;;;11.55;;
22995;SDS011;11664;49.774;8.650;2023-04-23T08:29:54;10.05;;;9.43;;
22995;SDS011;11664;49.774;8.650;2023-04-23T08:32:20;8.27;;;7.60;;
22995;SDS011;11664;49.774;8.650;2023-04-23T08:34:45;7.22;;;6.75;;
22995;SDS011;11664;49.774;8.650;2023-04-23T08:37:11;6.68;;;6.22;;
22995;SDS011;11664;49.774;8.650;2023-04-23T08:39:36;7.10;;;6.20;;
22995;SDS011;11664;49.774;8.650;2023-04-23T08:42:22;6.68;;;6.20;;
22995;SDS011;11664;49.774;8.650;2023-04-23T08:44:59;6.57;;;6.10;;
22995;SDS011;11664;49.774;8.650;2023-04-23T08:47:24;9.77;;;9.10;;
22995;SDS011;11664;49.774;8.650;2023-04-23T08:49:56;6.60;;;6.10;;
22995;SDS011;11664;49.774;8.650;2023-04-23T08:52:23;10.57;;;9.55;;
22995;SDS011;11664;49.774;8.650;2023-04-23T08:54:53;8.32;;;7.53;;
22995;SDS011;11664;49.774;8.650;2023-04-23T08:57:24;7.95;;;7.40;;
22995;SDS011;11664;49.774;8.650;2023-04-23T08:59:50;6.47;;;5.97;;
22995;SDS011;11664;49.774;8.650;2023-04-23T09:02:16;6.97;;;6.38;;
22995;SDS011;11664;49.774;8.650;2023-04-23T09:04:43;9.70;;;8.85;;
22995;SDS011;11664;49.774;8.650;2023-04-23T09:07:09;6.53;;;5.45;;
22995;SDS011;11664;49.774;8.650;2023-04-23T09:09:37;23.27;;;21.85;;
22995;SDS011;11664;49.774;8.650;2023-04-23T09:12:04;8.13;;;7.57;;
22995;SDS011;11664;49.774;8.650;2023-04-23T09:14:31;13.43;;;12.60;;
22995;SDS011;11664;49.774;8.650;2023-04-23T09:16:57;10.65;;;10.05;;
22995;SDS011;11664;49.774;8.650;2023-04-23T09:19:24;9.15;;;8.52;;
22995;SDS011;11664;49.774;8.650;2023-04-23T09:21:57;6.00;;;5.65;;
22995;SDS011;11664;49.774;8.650;2023-04-23T09:24:25;6.35;;;5.95;;
22995;SDS011;11664;49.774;8.650;2023-04-23T09:26:52;6.38;;;5.80;;
22995;SDS011;11664;49.774;8.650;2023-04-23T09:29:19;5.90;;;5.45;;
22995;SDS011;11664;49.774;8.650;2023-04-23T09:31:51;5.35;;;4.82;;
22995;SDS011;11664;49.774;8.650;2023-04-23T09:34:19;6.05;;;5.63;;
22995;SDS011;11664;49.774;8.650;2023-04-23T09:36:47;5.07;;;4.50;;
22995;SDS011;11664;49.774;8.650;2023-04-23T09:39:15;5.15;;;4.75;;
22995;SDS011;11664;49.774;8.650;2023-04-23T09:41:42;4.40;;;4.10;;
22995;SDS011;11664;49.774;8.650;2023-04-23T09:44:10;4.80;;;4.35;;
22995;SDS011;11664;49.774;8.650;2023-04-23T09:46:39;4.18;;;3.92;;
22995;SDS011;11664;49.774;8.650;2023-04-23T09:49:06;5.50;;;4.25;;
22995;SDS011;11664;49.774;8.650;2023-04-23T09:51:36;4.53;;;4.22;;
22995;SDS011;11664;49.774;8.650;2023-04-23T09:54:09;5.57;;;4.90;;
22995;SDS011;11664;49.774;8.650;2023-04-23T09:56:35;6.85;;;6.45;;
22995;SDS011;11664;49.774;8.650;2023-04-23T09:59:01;5.32;;;4.93;;
22995;SDS011;11664;49.774;8.650;2023-04-23T10:01:27;6.20;;;5.60;;
22995;SDS011;11664;49.774;8.650;2023-04-23T10:03:53;7.30;;;6.85;;
22995;SDS011;11664;49.774;8.650;2023-04-23T10:06:25;5.05;;;4.65;;
22995;SDS011;11664;49.774;8.650;2023-04-23T10:08:54;5.32;;;4.97;;
22995;SDS011;11664;49.774;8.650;2023-04-23T10:11:21;4.63;;;4.28;;
22995;SDS011;11664;49.774;8.650;2023-04-23T10:13:48;5.55;;;5.10;;
22995;SDS011;11664;49.774;8.650;2023-04-23T10:16:15;4.70;;;4.40;;
22995;SDS011;11664;49.774;8.650;2023-04-23T10:18:42;4.53;;;4.22;;
22995;SDS011;11664;49.774;8.650;2023-04-23T10:21:08;4.07;;;3.85;;
22995;SDS011;11664;49.774;8.650;2023-04-23T10:23:35;5.72;;;5.22;;
22995;SDS011;11664;49.774;8.650;2023-04-23T10:26:04;5.00;;;4.70;;
22995;SDS011;11664;49.774;8.650;2023-04-23T10:28:30;6.97;;;6.40;;
22995;SDS011;11664;49.774;8.650;2023-04-23T10:30:58;4.90;;;4.60;;
22995;SDS011;11664;49.774;8.650;2023-04-23T10:33:24;5.80;;;5.30;;
22995;SDS011;11664;49.774;8.650;2023-04-23T10:35:53;5.25;;;4.85;;
22995;SDS011;11664;49.774;8.650;2023-04-23T10:38:20;4.68;;;4.30;;
22995;SDS011;11664;49.774;8.650;2023-04-23T10:40:47;4.78;;;4.47;;
22995;SDS011;11664;49.774;8.650;2023-04-23T10:43:14;6.78;;;4.55;;
22995;SDS011;11664;49.774;8.650;2023-04-23T10:45:41;4.85;;;4.38;;
22995;SDS011;11664;49.774;8.650;2023-04-23T10:48:07;4.13;;;3.85;;
22995;SDS011;11664;49.774;8.650;2023-04-23T10:50:34;4.70;;;4.20;;
22995;SDS011;11664;49.774;8.650;2023-04-23T10:53:00;4.20;;;3.92;;
22995;SDS011;11664;49.774;8.650;2023-04-23T10:55:27;5.10;;;4.40;;
22995;SDS011;11664;49.774;8.650;2023-04-23T10:58:01;4.90;;;4.50;;
22995;SDS011;11664;49.774;8.650;2023-04-23T11:06:01;4.07;;;3.78;;
22995;SDS011;11664;49.774;8.650;2023-04-23T11:08:28;4.45;;;4.15;;
22995;SDS011;11664;49.774;8.650;2023-04-23T11:10:57;4.22;;;3.90;;
22995;SDS011;11664;49.774;8.650;2023-04-23T11:13:25;4.05;;;3.75;;
22995;SDS011;11664;49.774;8.650;2023-04-23T11:21:56;4.28;;;3.97;;
22995;SDS011;11664;49.774;8.650;2023-04-23T11:24:37;3.85;;;3.55;;
22995;SDS011;11664;49.774;8.650;2023-04-23T11:27:07;4.13;;;3.83;;
22995;SDS011;11664;49.774;8.650;2023-04-23T11:29:35;4.20;;;3.90;;
22995;SDS011;11664;49.774;8.650;2023-04-23T11:32:02;4.72;;;4.43;;
22995;SDS011;11664;49.774;8.650;2023-04-23T11:34:30;5.47;;;5.07;;
22995;SDS011;11664;49.774;8.650;2023-04-23T11:36:57;6.78;;;5.35;;
22995;SDS011;11664;49.774;8.650;2023-04-23T11:39:23;5.00;;;4.70;;
22995;SDS011;11664;49.774;8.650;2023-04-23T11:41:49;6.22;;;5.03;;
22995;SDS011;11664;49.774;8.650;2023-04-23T11:44:16;5.20;;;4.90;;
22995;SDS011;11664;49.774;8.650;2023-04-23T11:46:44;4.50;;;4.25;;
22995;SDS011;11664;49.774;8.650;2023-04-23T11:49:11;4.60;;;4.35;;
22995;SDS011;11664;49.774;8.650;2023-04-23T11:51:40;4.25;;;3.97;;
22995;SDS011;11664;49.774;8.650;2023-04-23T11:54:09;4.57;;;4.20;;
22995;SDS011;11664;49.774;8.650;2023-04-23T11:56:35;3.83;;;3.53;;
22995;SDS011;11664;49.774;8.650;2023-04-23T11:59:02;5.10;;;4.80;;
22995;SDS011;11664;49.774;8.650;2023-04-23T12:01:44;4.43;;;4.13;;
22995;SDS011;11664;49.774;8.650;2023-04-23T12:04:12;5.95;;;5.55;;
22995;SDS011;11664;49.774;8.650;2023-04-23T12:06:39;4.85;;;4.50;;
22995;SDS011;11664;49.774;8.650;2023-04-23T12:09:06;5.45;;;5.13;;
22995;SDS011;11664;49.774;8.650;2023-04-23T12:11:35;4.93;;;4.63;;
22995;SDS011;11664;49.774;8.650;2023-04-23T12:14:02;3.83;;;3.63;;
22995;SDS011;11664;49.774;8.650;2023-04-23T12:16:38;3.70;;;3.50;;
22995;SDS011;11664;49.774;8.650;2023-04-23T12:19:09;4.25;;;3.95;;
22995;SDS011;11664;49.774;8.650;2023-04-23T12:21:52;5.05;;;4.55;;
22995;SDS011;11664;49.774;8.650;2023-04-23T12:24:20;4.15;;;3.95;;
22995;SDS011;11664;49.774;8.650;2023-04-23T12:26:50;4.20;;;3.92;;
22995;SDS011;11664;49.774;8.650;2023-04-23T12:29:20;4.25;;;3.95;;
22995;SDS011;11664;49.774;8.650;2023-04-23T12:31:47;4.97;;;4.45;;
22995;SDS011;11664;49.774;8.650;2023-04-23T12:34:14;4.68;;;4.43;;
22995;SDS011;11664;49.774;8.650;2023-04-23T12:36:44;5.72;;;5.43;;
22995;SDS011;11664;49.774;8.650;2023-04-23T12:39:25;5.70;;;5.40;;
22995;SDS011;11664;49.774;8.650;2023-04-23T12:41:55;4.68;;;4.43;;
22995;SDS011;11664;49.774;8.650;2023-04-23T12:44:27;6.20;;;5.90;;
22995;SDS011;11664;49.774;8.650;2023-04-23T12:46:59;7.18;;;6.78;;
22995;SDS011;11664;49.774;8.650;2023-04-23T12:49:27;6.65;;;6.32;;
22995;SDS011;11664;49.774;8.650;2023-04-23T12:51:56;10.63;;;10.07;;
22995;SDS011;11664;49.774;8.650;2023-04-23T12:54:25;9.88;;;9.20;;
22995;SDS011;11664;49.774;8.650;2023-04-23T12:56:55;10.48;;;9.88;;
22995;SDS011;11664;49.774;8.650;2023-04-23T12:59:22;8.43;;;7.93;;
22995;SDS011;11664;49.774;8.650;2023-04-23T13:01:48;11.68;;;11.07;;
22995;SDS011;11664;49.774;8.650;2023-04-23T13:04:18;4.97;;;4.68;;
22995;SDS011;11664;49.774;8.650;2023-04-23T13:06:44;5.03;;;4.72;;
22995;SDS011;11664;49.774;8.650;2023-04-23T13:09:09;5.78;;;5.47;;
22995;SDS011;11664;49.774;8.650;2023-04-23T13:11:36;5.25;;;4.85;;
22995;SDS011;11664;49.774;8.650;2023-04-23T13:14:03;6.65;;;6.25;;
22995;SDS011;11664;49.774;8.650;2023-04-23T13:16:29;6.63;;;6.22;;
22995;SDS011;11664;49.774;8.650;2023-04-23T13:18:55;4.55;;;4.25;;
22995;SDS011;11664;49.774;8.650;2023-04-23T13:21:20;4.88;;;4.47;;
22995;SDS011;11664;49.774;8.650;2023-04-23T13:23:46;5.40;;;4.90;;
22995;SDS011;11664;49.774;8.650;2023-04-23T13:26:12;17.05;;;16.10;;
22995;SDS011;11664;49.774;8.650;2023-04-23T13:28:38;13.85;;;13.10;;
22995;SDS011;11664;49.774;8.650;2023-04-23T13:31:04;14.73;;;14.00;;
22995;SDS011;11664;49.774;8.650;2023-04-23T13:33:30;13.40;;;12.32;;
22995;SDS011;11664;49.774;8.650;2023-04-23T13:35:57;17.13;;;15.98;;
22995;SDS011;11664;49.774;8.650;2023-04-23T13:38:25;25.55;;;24.20;;
22995;SDS011;11664;49.774;8.650;2023-04-23T13:40:51;21.88;;;20.60;;
22995;SDS011;11664;49.774;8.650;2023-04-23T13:43:17;4.63;;;4.32;;
22995;SDS011;11664;49.774;8.650;2023-04-23T13:45:44;3.17;;;2.97;;
22995;SDS011;11664;49.774;8.650;2023-04-23T13:48:10;4.88;;;4.47;;
22995;SDS011;11664;49.774;8.650;2023-04-23T13:50:36;3.47;;;3.28;;
22995;SDS011;11664;49.774;8.650;2023-04-23T13:53:02;7.63;;;7.22;;
22995;SDS011;11664;49.774;8.650;2023-04-23T13:55:27;4.45;;;4.10;;
22995;SDS011;11664;49.774;8.650;2023-04-23T13:57:53;3.58;;;3.38;;
22995;SDS011;11664;49.774;8.650;2023-04-23T14:00:22;3.90;;;3.60;;
22995;SDS011;11664;49.774;8.650;2023-04-23T14:02:48;4.22;;;4.03;;
22995;SDS011;11664;49.774;8.650;2023-04-23T14:05:14;3.45;;;3.15;;
22995;SDS011;11664;49.774;8.650;2023-04-23T14:07:39;4.05;;;3.85;;
22995;SDS011;11664;49.774;8.650;2023-04-23T14:10:05;6.80;;;6.43;;
22995;SDS011;11664;49.774;8.650;2023-04-23T14:12:31;5.80;;;5.50;;
22995;SDS011;11664;49.774;8.650;2023-04-23T14:14:56;5.90;;;5.40;;
22995;SDS011;11664;49.774;8.650;2023-04-23T14:17:22;4.40;;;4.20;;
22995;SDS011;11664;49.774;8.650;2023-04-23T14:19:48;2.80;;;2.70;;
22995;SDS011;11664;49.774;8.650;2023-04-23T14:22:13;3.53;;;3.33;;
22995;SDS011;11664;49.774;8.650;2023-04-23T14:24:43;7.05;;;4.25;;
22995;SDS011;11664;49.774;8.650;2023-04-23T14:27:20;4.25;;;4.05;;
22995;SDS011;11664;49.774;8.650;2023-04-23T14:29:50;8.55;;;8.15;;
22995;SDS011;11664;49.774;8.650;2023-04-23T14:32:21;7.28;;;6.88;;
22995;SDS011;11664;49.774;8.650;2023-04-23T14:34:47;5.57;;;5.28;;
22995;SDS011;11664;49.774;8.650;2023-04-23T14:37:12;4.68;;;4.47;;
22995;SDS011;11664;49.774;8.650;2023-04-23T14:39:39;3.92;;;3.65;;
22995;SDS011;11664;49.774;8.650;2023-04-23T14:42:05;4.38;;;4.18;;
22995;SDS011;11664;49.774;8.650;2023-04-23T14:44:30;4.38;;;4.18;;
22995;SDS011;11664;49.774;8.650;2023-04-23T14:46:56;3.17;;;2.97;;
22995;SDS011;11664;49.774;8.650;2023-04-23T14:49:21;2.92;;;2.83;;
22995;SDS011;11664;49.774;8.650;2023-04-23T14:51:48;4.53;;;4.32;;
22995;SDS011;11664;49.774;8.650;2023-04-23T14:54:15;3.50;;;3.30;;
22995;SDS011;11664;49.774;8.650;2023-04-23T14:56:41;4.07;;;3.78;;
22995;SDS011;11664;49.774;8.650;2023-04-23T14:59:07;3.42;;;3.22;;
22995;SDS011;11664;49.774;8.650;2023-04-23T15:01:32;3.13;;;3.03;;
22995;SDS011;11664;49.774;8.650;2023-04-23T15:03:58;3.30;;;3.10;;
22995;SDS011;11664;49.774;8.650;2023-04-23T15:06:23;3.65;;;3.45;;
22995;SDS011;11664;49.774;8.650;2023-04-23T15:08:49;4.00;;;3.70;;
22995;SDS011;11664;49.774;8.650;2023-04-23T15:11:15;27.48;;;13.77;;
22995;SDS011;11664;49.774;8.650;2023-04-23T15:16:32;22.20;;;14.43;;
22995;SDS011;11664;49.774;8.650;2023-04-23T15:19:02;12.88;;;11.20;;
22995;SDS011;11664;49.774;8.650;2023-04-23T15:21:30;4.82;;;4.43;;
22995;SDS011;11664;49.774;8.650;2023-04-23T15:23:56;5.50;;;4.60;;
22995;SDS011;11664;49.774;8.650;2023-04-23T15:26:22;3.45;;;3.25;;
22995;SDS011;11664;49.774;8.650;2023-04-23T15:28:49;2.90;;;2.80;;
22995;SDS011;11664;49.774;8.650;2023-04-23T15:31:15;3.13;;;3.03;;
22995;SDS011;11664;49.774;8.650;2023-04-23T15:33:40;3.22;;;2.95;;
22995;SDS011;11664;49.774;8.650;2023-04-23T15:36:06;9.45;;;3.38;;
22995;SDS011;11664;49.774;8.650;2023-04-23T15:38:32;2.97;;;2.88;;
22995;SDS011;11664;49.774;8.650;2023-04-23T15:40:57;2.90;;;2.80;;
22995;SDS011;11664;49.774;8.650;2023-04-23T15:43:24;4.03;;;3.83;;
22995;SDS011;11664;49.774;8.650;2023-04-23T15:45:50;4.10;;;3.80;;
22995;SDS011;11664;49.774;8.650;2023-04-23T15:48:17;3.10;;;2.90;;
22995;SDS011;11664;49.774;8.650;2023-04-23T15:50:43;3.10;;;2.90;;
22995;SDS011;11664;49.774;8.650;2023-04-23T15:53:09;3.88;;;3.33;;
22995;SDS011;11664;49.774;8.650;2023-04-23T15:55:35;4.80;;;4.50;;
22995;SDS011;11664;49.774;8.650;2023-04-23T15:58:03;3.97;;;3.78;;
22995;SDS011;11664;49.774;8.650;2023-04-23T16:00:28;8.93;;;5.75;;
22995;SDS011;11664;49.774;8.650;2023-04-23T16:02:55;3.60;;;3.30;;
22995;SDS011;11664;49.774;8.650;2023-04-23T16:05:22;3.63;;;3.42;;
22995;SDS011;11664;49.774;8.650;2023-04-23T16:07:48;6.10;;;5.35;;
22995;SDS011;11664;49.774;8.650;2023-04-23T16:10:13;4.28;;;3.97;;
22995;SDS011;11664;49.774;8.650;2023-04-23T16:12:39;3.72;;;3.40;;
22995;SDS011;11664;49.774;8.650;2023-04-23T16:15:09;4.15;;;3.85;;
22995;SDS011;11664;49.774;8.650;2023-04-23T16:17:35;7.43;;;7.03;;
22995;SDS011;11664;49.774;8.650;2023-04-23T16:20:01;4.70;;;4.40;;